Terminal Aerodrome Forecast
Issued by NWS

Home | Current Version | Previous Version | Text Only | Print | Product List | Glossary On
Versions: 1 2 3 4 5 6 7 8 9 10 11 12 13 14 15
000
FTUS46 KSEW 211700
TAFBLI
TAF
KBLI 211724Z 2118/2218 19008KT P6SM SCT035 BKN060
      TEMPO 2119/2123 -SHRA BKN035 OVC060
     FM212300 20008KT P6SM BKN035
     FM220700 17005KT P6SM OVC020=

USA.gov is the U.S. government's official web portal to all federal, state and local government web resources and services.